sensor_id;sensor_type;location;lat;lon;timestamp;P1;durP1;ratioP1;P2;durP2;ratioP2
15155;SDS011;7678;50.058;8.306;2024-01-11T00:00:56;27.13;;;21.33;;
15155;SDS011;7678;50.058;8.306;2024-01-11T00:03:26;27.83;;;21.20;;
15155;SDS011;7678;50.058;8.306;2024-01-11T00:05:54;27.17;;;22.03;;
15155;SDS011;7678;50.058;8.306;2024-01-11T00:08:22;27.23;;;21.57;;
15155;SDS011;7678;50.058;8.306;2024-01-11T00:10:51;28.33;;;20.17;;
15155;SDS011;7678;50.058;8.306;2024-01-11T00:13:22;29.07;;;20.97;;
15155;SDS011;7678;50.058;8.306;2024-01-11T00:15:50;31.33;;;21.83;;
15155;SDS011;7678;50.058;8.306;2024-01-11T00:18:20;30.13;;;21.10;;
15155;SDS011;7678;50.058;8.306;2024-01-11T00:20:49;32.00;;;22.60;;
15155;SDS011;7678;50.058;8.306;2024-01-11T00:23:19;30.53;;;21.07;;
15155;SDS011;7678;50.058;8.306;2024-01-11T00:25:47;25.93;;;21.87;;
15155;SDS011;7678;50.058;8.306;2024-01-11T00:28:16;29.40;;;22.10;;
15155;SDS011;7678;50.058;8.306;2024-01-11T00:30:45;27.87;;;21.40;;
15155;SDS011;7678;50.058;8.306;2024-01-11T00:33:13;30.57;;;22.40;;
15155;SDS011;7678;50.058;8.306;2024-01-11T00:35:45;28.93;;;21.20;;
15155;SDS011;7678;50.058;8.306;2024-01-11T00:38:13;29.43;;;21.50;;
15155;SDS011;7678;50.058;8.306;2024-01-11T00:40:42;31.40;;;22.73;;
15155;SDS011;7678;50.058;8.306;2024-01-11T00:43:11;25.97;;;21.03;;
15155;SDS011;7678;50.058;8.306;2024-01-11T00:45:39;27.13;;;21.43;;
15155;SDS011;7678;50.058;8.306;2024-01-11T00:48:07;29.60;;;21.97;;
15155;SDS011;7678;50.058;8.306;2024-01-11T00:50:36;28.17;;;21.40;;
15155;SDS011;7678;50.058;8.306;2024-01-11T00:53:06;27.20;;;21.70;;
15155;SDS011;7678;50.058;8.306;2024-01-11T00:55:35;28.43;;;22.63;;
15155;SDS011;7678;50.058;8.306;2024-01-11T00:58:04;28.10;;;22.70;;
15155;SDS011;7678;50.058;8.306;2024-01-11T01:00:32;27.53;;;21.43;;
15155;SDS011;7678;50.058;8.306;2024-01-11T01:03:01;33.17;;;22.93;;
15155;SDS011;7678;50.058;8.306;2024-01-11T01:05:30;27.73;;;21.73;;
15155;SDS011;7678;50.058;8.306;2024-01-11T01:07:59;26.63;;;21.00;;
15155;SDS011;7678;50.058;8.306;2024-01-11T01:10:36;27.80;;;22.90;;
15155;SDS011;7678;50.058;8.306;2024-01-11T01:13:06;31.10;;;23.87;;
15155;SDS011;7678;50.058;8.306;2024-01-11T01:15:35;28.63;;;21.80;;
15155;SDS011;7678;50.058;8.306;2024-01-11T01:18:03;29.20;;;21.70;;
15155;SDS011;7678;50.058;8.306;2024-01-11T01:20:35;27.20;;;22.17;;
15155;SDS011;7678;50.058;8.306;2024-01-11T01:23:03;28.30;;;21.93;;
15155;SDS011;7678;50.058;8.306;2024-01-11T01:25:32;27.30;;;22.00;;
15155;SDS011;7678;50.058;8.306;2024-01-11T01:28:01;27.77;;;22.00;;
15155;SDS011;7678;50.058;8.306;2024-01-11T01:30:29;29.67;;;22.50;;
15155;SDS011;7678;50.058;8.306;2024-01-11T01:32:59;29.23;;;22.57;;
15155;SDS011;7678;50.058;8.306;2024-01-11T01:35:28;26.83;;;21.60;;
15155;SDS011;7678;50.058;8.306;2024-01-11T01:37:56;32.23;;;23.77;;
15155;SDS011;7678;50.058;8.306;2024-01-11T01:40:25;29.30;;;21.63;;
15155;SDS011;7678;50.058;8.306;2024-01-11T01:42:57;26.73;;;22.33;;
15155;SDS011;7678;50.058;8.306;2024-01-11T01:45:28;32.37;;;23.93;;
15155;SDS011;7678;50.058;8.306;2024-01-11T01:47:56;31.43;;;24.50;;
15155;SDS011;7678;50.058;8.306;2024-01-11T01:50:24;30.43;;;23.00;;
15155;SDS011;7678;50.058;8.306;2024-01-11T01:52:53;29.20;;;23.57;;
15155;SDS011;7678;50.058;8.306;2024-01-11T01:55:23;33.10;;;23.73;;
15155;SDS011;7678;50.058;8.306;2024-01-11T01:57:54;31.53;;;24.03;;
15155;SDS011;7678;50.058;8.306;2024-01-11T02:00:23;29.17;;;23.33;;
15155;SDS011;7678;50.058;8.306;2024-01-11T02:02:53;30.37;;;24.37;;
15155;SDS011;7678;50.058;8.306;2024-01-11T02:05:24;29.20;;;23.63;;
15155;SDS011;7678;50.058;8.306;2024-01-11T02:07:52;30.47;;;23.47;;
15155;SDS011;7678;50.058;8.306;2024-01-11T02:10:21;32.43;;;24.87;;
15155;SDS011;7678;50.058;8.306;2024-01-11T02:12:51;29.60;;;24.73;;
15155;SDS011;7678;50.058;8.306;2024-01-11T02:15:20;35.40;;;25.60;;
15155;SDS011;7678;50.058;8.306;2024-01-11T02:17:49;33.73;;;23.83;;
15155;SDS011;7678;50.058;8.306;2024-01-11T02:20:19;29.93;;;23.10;;
15155;SDS011;7678;50.058;8.306;2024-01-11T02:22:47;29.57;;;23.70;;
15155;SDS011;7678;50.058;8.306;2024-01-11T02:25:24;29.00;;;23.13;;
15155;SDS011;7678;50.058;8.306;2024-01-11T02:27:53;29.33;;;22.63;;
15155;SDS011;7678;50.058;8.306;2024-01-11T02:30:21;31.97;;;23.83;;
15155;SDS011;7678;50.058;8.306;2024-01-11T02:32:50;29.87;;;23.53;;
15155;SDS011;7678;50.058;8.306;2024-01-11T02:35:19;30.57;;;24.17;;
15155;SDS011;7678;50.058;8.306;2024-01-11T02:37:48;28.80;;;23.33;;
15155;SDS011;7678;50.058;8.306;2024-01-11T02:40:17;28.97;;;24.30;;
15155;SDS011;7678;50.058;8.306;2024-01-11T02:42:49;31.00;;;23.90;;
15155;SDS011;7678;50.058;8.306;2024-01-11T02:45:17;31.93;;;25.57;;
15155;SDS011;7678;50.058;8.306;2024-01-11T02:47:46;33.23;;;24.80;;
15155;SDS011;7678;50.058;8.306;2024-01-11T02:50:15;33.43;;;25.17;;
15155;SDS011;7678;50.058;8.306;2024-01-11T02:52:43;32.57;;;25.17;;
15155;SDS011;7678;50.058;8.306;2024-01-11T02:55:11;32.93;;;25.87;;
15155;SDS011;7678;50.058;8.306;2024-01-11T02:57:40;30.03;;;23.97;;
15155;SDS011;7678;50.058;8.306;2024-01-11T03:00:11;29.70;;;23.43;;
15155;SDS011;7678;50.058;8.306;2024-01-11T03:02:42;32.00;;;25.10;;
15155;SDS011;7678;50.058;8.306;2024-01-11T03:05:10;29.83;;;24.20;;
15155;SDS011;7678;50.058;8.306;2024-01-11T03:07:40;30.80;;;24.20;;
15155;SDS011;7678;50.058;8.306;2024-01-11T03:10:08;32.60;;;24.70;;
15155;SDS011;7678;50.058;8.306;2024-01-11T03:12:39;33.23;;;24.83;;
15155;SDS011;7678;50.058;8.306;2024-01-11T03:15:08;31.13;;;23.97;;
15155;SDS011;7678;50.058;8.306;2024-01-11T03:17:39;30.23;;;24.17;;
15155;SDS011;7678;50.058;8.306;2024-01-11T03:20:08;36.50;;;27.10;;
15155;SDS011;7678;50.058;8.306;2024-01-11T03:22:44;33.93;;;25.40;;
15155;SDS011;7678;50.058;8.306;2024-01-11T03:25:14;32.63;;;24.97;;
15155;SDS011;7678;50.058;8.306;2024-01-11T03:27:42;34.40;;;25.00;;
15155;SDS011;7678;50.058;8.306;2024-01-11T03:30:11;33.07;;;25.57;;
15155;SDS011;7678;50.058;8.306;2024-01-11T03:32:41;30.97;;;25.53;;
15155;SDS011;7678;50.058;8.306;2024-01-11T03:35:10;31.17;;;24.30;;
15155;SDS011;7678;50.058;8.306;2024-01-11T03:37:38;32.30;;;24.63;;
15155;SDS011;7678;50.058;8.306;2024-01-11T03:40:07;33.70;;;25.57;;
15155;SDS011;7678;50.058;8.306;2024-01-11T03:42:36;30.97;;;25.10;;
15155;SDS011;7678;50.058;8.306;2024-01-11T03:45:17;29.27;;;24.17;;
15155;SDS011;7678;50.058;8.306;2024-01-11T03:47:47;30.00;;;24.03;;
15155;SDS011;7678;50.058;8.306;2024-01-11T03:50:15;31.33;;;24.73;;
15155;SDS011;7678;50.058;8.306;2024-01-11T03:52:47;31.77;;;25.00;;
15155;SDS011;7678;50.058;8.306;2024-01-11T03:55:15;30.97;;;24.30;;
15155;SDS011;7678;50.058;8.306;2024-01-11T03:57:44;29.90;;;24.57;;
15155;SDS011;7678;50.058;8.306;2024-01-11T04:02:43;31.47;;;25.13;;
15155;SDS011;7678;50.058;8.306;2024-01-11T04:05:14;33.07;;;25.43;;
15155;SDS011;7678;50.058;8.306;2024-01-11T04:07:45;40.30;;;24.23;;
15155;SDS011;7678;50.058;8.306;2024-01-11T04:10:15;34.93;;;22.87;;
15155;SDS011;7678;50.058;8.306;2024-01-11T04:12:44;32.70;;;22.00;;
15155;SDS011;7678;50.058;8.306;2024-01-11T04:15:13;29.27;;;24.17;;
15155;SDS011;7678;50.058;8.306;2024-01-11T04:17:42;30.70;;;24.33;;
15155;SDS011;7678;50.058;8.306;2024-01-11T04:20:10;31.50;;;25.23;;
15155;SDS011;7678;50.058;8.306;2024-01-11T04:22:41;30.47;;;23.87;;
15155;SDS011;7678;50.058;8.306;2024-01-11T04:25:10;32.00;;;25.20;;
15155;SDS011;7678;50.058;8.306;2024-01-11T04:27:38;30.33;;;24.83;;
15155;SDS011;7678;50.058;8.306;2024-01-11T04:30:07;31.47;;;23.77;;
15155;SDS011;7678;50.058;8.306;2024-01-11T04:32:35;32.07;;;24.37;;
15155;SDS011;7678;50.058;8.306;2024-01-11T04:35:05;29.27;;;23.97;;
15155;SDS011;7678;50.058;8.306;2024-01-11T04:37:34;31.03;;;25.00;;
15155;SDS011;7678;50.058;8.306;2024-01-11T04:40:06;31.27;;;24.00;;
15155;SDS011;7678;50.058;8.306;2024-01-11T04:42:35;32.70;;;25.17;;
15155;SDS011;7678;50.058;8.306;2024-01-11T04:45:06;32.43;;;24.50;;
15155;SDS011;7678;50.058;8.306;2024-01-11T04:47:34;32.50;;;24.57;;
15155;SDS011;7678;50.058;8.306;2024-01-11T04:50:04;30.37;;;24.20;;
15155;SDS011;7678;50.058;8.306;2024-01-11T04:52:35;31.63;;;25.17;;
15155;SDS011;7678;50.058;8.306;2024-01-11T04:55:13;32.87;;;24.77;;
15155;SDS011;7678;50.058;8.306;2024-01-11T04:57:43;32.43;;;25.63;;
15155;SDS011;7678;50.058;8.306;2024-01-11T05:02:37;32.27;;;24.03;;
15155;SDS011;7678;50.058;8.306;2024-01-11T05:05:08;28.77;;;23.63;;
15155;SDS011;7678;50.058;8.306;2024-01-11T05:07:37;33.00;;;24.63;;
15155;SDS011;7678;50.058;8.306;2024-01-11T05:10:07;29.53;;;24.10;;
15155;SDS011;7678;50.058;8.306;2024-01-11T05:12:37;30.53;;;24.97;;
15155;SDS011;7678;50.058;8.306;2024-01-11T05:15:06;29.83;;;23.63;;
15155;SDS011;7678;50.058;8.306;2024-01-11T05:17:36;33.47;;;24.40;;
15155;SDS011;7678;50.058;8.306;2024-01-11T05:20:05;29.00;;;24.13;;
15155;SDS011;7678;50.058;8.306;2024-01-11T05:22:34;30.50;;;24.27;;
15155;SDS011;7678;50.058;8.306;2024-01-11T05:25:03;34.57;;;25.53;;
15155;SDS011;7678;50.058;8.306;2024-01-11T05:27:32;29.80;;;24.53;;
15155;SDS011;7678;50.058;8.306;2024-01-11T05:30:02;33.53;;;25.40;;
15155;SDS011;7678;50.058;8.306;2024-01-11T05:32:31;33.93;;;25.03;;
15155;SDS011;7678;50.058;8.306;2024-01-11T05:35:00;31.37;;;25.07;;
15155;SDS011;7678;50.058;8.306;2024-01-11T05:37:28;35.73;;;27.87;;
15155;SDS011;7678;50.058;8.306;2024-01-11T05:39:57;36.03;;;27.63;;
15155;SDS011;7678;50.058;8.306;2024-01-11T05:42:25;35.50;;;26.87;;
15155;SDS011;7678;50.058;8.306;2024-01-11T05:44:55;44.07;;;28.67;;
15155;SDS011;7678;50.058;8.306;2024-01-11T05:47:25;39.37;;;30.03;;
15155;SDS011;7678;50.058;8.306;2024-01-11T05:49:53;39.97;;;31.30;;
15155;SDS011;7678;50.058;8.306;2024-01-11T05:52:25;41.07;;;31.90;;
15155;SDS011;7678;50.058;8.306;2024-01-11T05:54:54;39.40;;;30.50;;
15155;SDS011;7678;50.058;8.306;2024-01-11T05:57:22;38.47;;;30.30;;
15155;SDS011;7678;50.058;8.306;2024-01-11T05:59:51;36.33;;;29.47;;
15155;SDS011;7678;50.058;8.306;2024-01-11T06:02:21;37.33;;;28.63;;
15155;SDS011;7678;50.058;8.306;2024-01-11T06:04:51;41.10;;;29.57;;
15155;SDS011;7678;50.058;8.306;2024-01-11T06:07:19;40.10;;;31.10;;
15155;SDS011;7678;50.058;8.306;2024-01-11T06:09:48;39.83;;;29.63;;
15155;SDS011;7678;50.058;8.306;2024-01-11T06:12:16;39.57;;;24.70;;
15155;SDS011;7678;50.058;8.306;2024-01-11T06:14:45;37.70;;;28.33;;
15155;SDS011;7678;50.058;8.306;2024-01-11T06:17:14;36.33;;;28.17;;
15155;SDS011;7678;50.058;8.306;2024-01-11T06:19:43;39.23;;;30.43;;
15155;SDS011;7678;50.058;8.306;2024-01-11T06:22:12;40.73;;;31.80;;
15155;SDS011;7678;50.058;8.306;2024-01-11T06:24:40;42.17;;;33.10;;
15155;SDS011;7678;50.058;8.306;2024-01-11T06:27:09;41.47;;;32.23;;
15155;SDS011;7678;50.058;8.306;2024-01-11T06:29:37;47.27;;;33.13;;
15155;SDS011;7678;50.058;8.306;2024-01-11T06:32:07;42.03;;;33.57;;
15155;SDS011;7678;50.058;8.306;2024-01-11T06:34:36;43.93;;;34.07;;
15155;SDS011;7678;50.058;8.306;2024-01-11T06:37:04;38.87;;;30.73;;
15155;SDS011;7678;50.058;8.306;2024-01-11T06:39:37;41.47;;;30.60;;
15155;SDS011;7678;50.058;8.306;2024-01-11T06:42:08;41.60;;;30.37;;
15155;SDS011;7678;50.058;8.306;2024-01-11T06:44:36;38.33;;;28.47;;
15155;SDS011;7678;50.058;8.306;2024-01-11T06:47:05;41.03;;;30.43;;
15155;SDS011;7678;50.058;8.306;2024-01-11T06:49:37;40.40;;;30.73;;
15155;SDS011;7678;50.058;8.306;2024-01-11T06:52:06;41.03;;;31.23;;
15155;SDS011;7678;50.058;8.306;2024-01-11T06:54:37;40.23;;;30.53;;
15155;SDS011;7678;50.058;8.306;2024-01-11T06:57:06;41.13;;;32.40;;
15155;SDS011;7678;50.058;8.306;2024-01-11T06:59:38;41.53;;;31.37;;
15155;SDS011;7678;50.058;8.306;2024-01-11T07:02:13;44.13;;;32.30;;
15155;SDS011;7678;50.058;8.306;2024-01-11T07:04:43;38.50;;;31.67;;
15155;SDS011;7678;50.058;8.306;2024-01-11T07:07:12;44.33;;;32.97;;
15155;SDS011;7678;50.058;8.306;2024-01-11T07:09:42;44.53;;;29.30;;
15155;SDS011;7678;50.058;8.306;2024-01-11T07:12:12;43.53;;;33.77;;
15155;SDS011;7678;50.058;8.306;2024-01-11T07:14:42;45.40;;;33.40;;
15155;SDS011;7678;50.058;8.306;2024-01-11T07:17:12;48.03;;;30.13;;
15155;SDS011;7678;50.058;8.306;2024-01-11T07:19:42;42.17;;;33.07;;
15155;SDS011;7678;50.058;8.306;2024-01-11T07:22:11;44.67;;;33.07;;
15155;SDS011;7678;50.058;8.306;2024-01-11T07:24:41;44.33;;;33.73;;
15155;SDS011;7678;50.058;8.306;2024-01-11T07:27:10;45.87;;;34.27;;
15155;SDS011;7678;50.058;8.306;2024-01-11T07:29:40;58.20;;;32.33;;
15155;SDS011;7678;50.058;8.306;2024-01-11T07:32:09;55.10;;;34.23;;
15155;SDS011;7678;50.058;8.306;2024-01-11T07:34:37;54.57;;;33.17;;
15155;SDS011;7678;50.058;8.306;2024-01-11T07:37:06;54.63;;;33.30;;
15155;SDS011;7678;50.058;8.306;2024-01-11T07:39:34;44.90;;;35.47;;
15155;SDS011;7678;50.058;8.306;2024-01-11T07:42:04;44.97;;;35.10;;
15155;SDS011;7678;50.058;8.306;2024-01-11T07:44:33;44.00;;;33.47;;
15155;SDS011;7678;50.058;8.306;2024-01-11T07:47:01;47.07;;;35.97;;
15155;SDS011;7678;50.058;8.306;2024-01-11T07:49:30;45.33;;;35.23;;
15155;SDS011;7678;50.058;8.306;2024-01-11T07:51:58;43.83;;;33.97;;
15155;SDS011;7678;50.058;8.306;2024-01-11T07:54:28;46.50;;;35.30;;
15155;SDS011;7678;50.058;8.306;2024-01-11T07:56:58;47.63;;;34.30;;
15155;SDS011;7678;50.058;8.306;2024-01-11T07:59:32;44.90;;;34.60;;
15155;SDS011;7678;50.058;8.306;2024-01-11T08:05:03;43.00;;;33.73;;
15155;SDS011;7678;50.058;8.306;2024-01-11T08:07:33;43.53;;;34.23;;
15155;SDS011;7678;50.058;8.306;2024-01-11T08:10:08;46.03;;;34.30;;
15155;SDS011;7678;50.058;8.306;2024-01-11T08:12:37;47.00;;;35.17;;
15155;SDS011;7678;50.058;8.306;2024-01-11T08:15:07;44.73;;;34.13;;
15155;SDS011;7678;50.058;8.306;2024-01-11T08:17:39;45.23;;;35.90;;
15155;SDS011;7678;50.058;8.306;2024-01-11T08:20:13;46.40;;;34.30;;
15155;SDS011;7678;50.058;8.306;2024-01-11T08:22:42;47.13;;;36.10;;
15155;SDS011;7678;50.058;8.306;2024-01-11T08:25:12;44.40;;;34.33;;
15155;SDS011;7678;50.058;8.306;2024-01-11T08:27:41;40.83;;;32.70;;
15155;SDS011;7678;50.058;8.306;2024-01-11T08:30:10;47.83;;;35.17;;
15155;SDS011;7678;50.058;8.306;2024-01-11T08:32:40;45.83;;;35.13;;
15155;SDS011;7678;50.058;8.306;2024-01-11T08:35:08;45.27;;;33.37;;
15155;SDS011;7678;50.058;8.306;2024-01-11T08:37:39;46.20;;;33.77;;
15155;SDS011;7678;50.058;8.306;2024-01-11T08:40:07;43.53;;;32.40;;
15155;SDS011;7678;50.058;8.306;2024-01-11T08:42:37;39.23;;;30.80;;
15155;SDS011;7678;50.058;8.306;2024-01-11T08:45:08;41.73;;;31.33;;
15155;SDS011;7678;50.058;8.306;2024-01-11T08:47:38;41.83;;;32.17;;
15155;SDS011;7678;50.058;8.306;2024-01-11T08:50:07;42.93;;;33.00;;
15155;SDS011;7678;50.058;8.306;2024-01-11T08:52:37;40.73;;;32.03;;
15155;SDS011;7678;50.058;8.306;2024-01-11T08:55:06;47.43;;;33.20;;
15155;SDS011;7678;50.058;8.306;2024-01-11T08:57:34;47.37;;;31.83;;
15155;SDS011;7678;50.058;8.306;2024-01-11T09:00:04;43.60;;;30.47;;
15155;SDS011;7678;50.058;8.306;2024-01-11T09:02:33;44.10;;;31.63;;
15155;SDS011;7678;50.058;8.306;2024-01-11T09:05:03;46.23;;;30.57;;
15155;SDS011;7678;50.058;8.306;2024-01-11T09:07:35;41.27;;;29.50;;
15155;SDS011;7678;50.058;8.306;2024-01-11T09:10:04;42.50;;;30.20;;
15155;SDS011;7678;50.058;8.306;2024-01-11T09:12:35;48.37;;;30.33;;
15155;SDS011;7678;50.058;8.306;2024-01-11T09:15:04;41.80;;;29.57;;
15155;SDS011;7678;50.058;8.306;2024-01-11T09:17:35;45.33;;;29.33;;
15155;SDS011;7678;50.058;8.306;2024-01-11T09:20:07;42.20;;;29.53;;
15155;SDS011;7678;50.058;8.306;2024-01-11T09:22:41;42.17;;;29.23;;
15155;SDS011;7678;50.058;8.306;2024-01-11T09:25:09;40.17;;;28.17;;
15155;SDS011;7678;50.058;8.306;2024-01-11T09:27:38;43.87;;;28.90;;
15155;SDS011;7678;50.058;8.306;2024-01-11T09:30:07;41.60;;;28.23;;
15155;SDS011;7678;50.058;8.306;2024-01-11T09:32:36;41.60;;;28.70;;
15155;SDS011;7678;50.058;8.306;2024-01-11T09:35:04;50.17;;;32.93;;
15155;SDS011;7678;50.058;8.306;2024-01-11T09:37:39;56.57;;;37.10;;
15155;SDS011;7678;50.058;8.306;2024-01-11T09:40:07;56.80;;;38.30;;
15155;SDS011;7678;50.058;8.306;2024-01-11T09:42:37;53.70;;;35.77;;
15155;SDS011;7678;50.058;8.306;2024-01-11T09:45:07;58.13;;;36.27;;
15155;SDS011;7678;50.058;8.306;2024-01-11T09:47:42;58.03;;;33.50;;
15155;SDS011;7678;50.058;8.306;2024-01-11T09:50:15;55.97;;;35.77;;
15155;SDS011;7678;50.058;8.306;2024-01-11T09:52:49;66.43;;;32.97;;
15155;SDS011;7678;50.058;8.306;2024-01-11T09:55:18;51.73;;;32.97;;
15155;SDS011;7678;50.058;8.306;2024-01-11T09:57:47;52.67;;;31.67;;
15155;SDS011;7678;50.058;8.306;2024-01-11T10:00:22;51.17;;;32.73;;
15155;SDS011;7678;50.058;8.306;2024-01-11T10:05:48;46.80;;;31.47;;
15155;SDS011;7678;50.058;8.306;2024-01-11T10:08:19;49.67;;;30.20;;
15155;SDS011;7678;50.058;8.306;2024-01-11T10:10:50;45.17;;;29.70;;
15155;SDS011;7678;50.058;8.306;2024-01-11T10:13:21;49.13;;;29.50;;
15155;SDS011;7678;50.058;8.306;2024-01-11T10:16:04;47.03;;;29.57;;
15155;SDS011;7678;50.058;8.306;2024-01-11T10:18:35;43.63;;;28.43;;
15155;SDS011;7678;50.058;8.306;2024-01-11T10:21:05;45.47;;;29.97;;
15155;SDS011;7678;50.058;8.306;2024-01-11T10:23:36;47.73;;;30.30;;
15155;SDS011;7678;50.058;8.306;2024-01-11T10:26:07;44.77;;;30.10;;
15155;SDS011;7678;50.058;8.306;2024-01-11T10:28:48;48.33;;;28.83;;
15155;SDS011;7678;50.058;8.306;2024-01-11T10:31:21;47.70;;;29.87;;
15155;SDS011;7678;50.058;8.306;2024-01-11T10:33:54;46.67;;;27.93;;
15155;SDS011;7678;50.058;8.306;2024-01-11T10:36:24;46.73;;;29.33;;
15155;SDS011;7678;50.058;8.306;2024-01-11T10:38:52;41.60;;;28.10;;
15155;SDS011;7678;50.058;8.306;2024-01-11T10:41:23;42.27;;;27.70;;
15155;SDS011;7678;50.058;8.306;2024-01-11T10:43:52;46.73;;;29.33;;
15155;SDS011;7678;50.058;8.306;2024-01-11T10:46:22;44.70;;;29.33;;
15155;SDS011;7678;50.058;8.306;2024-01-11T10:48:55;47.07;;;29.40;;
15155;SDS011;7678;50.058;8.306;2024-01-11T10:51:27;49.93;;;28.77;;
15155;SDS011;7678;50.058;8.306;2024-01-11T10:54:01;47.87;;;30.20;;
15155;SDS011;7678;50.058;8.306;2024-01-11T10:56:32;48.97;;;28.73;;
15155;SDS011;7678;50.058;8.306;2024-01-11T10:59:02;44.90;;;29.50;;
15155;SDS011;7678;50.058;8.306;2024-01-11T11:01:30;52.47;;;31.17;;
15155;SDS011;7678;50.058;8.306;2024-01-11T11:03:59;57.73;;;30.50;;
15155;SDS011;7678;50.058;8.306;2024-01-11T11:06:30;52.17;;;30.87;;
15155;SDS011;7678;50.058;8.306;2024-01-11T11:09:02;46.60;;;30.80;;
15155;SDS011;7678;50.058;8.306;2024-01-11T11:11:32;48.67;;;29.57;;
15155;SDS011;7678;50.058;8.306;2024-01-11T11:14:01;48.83;;;29.53;;
15155;SDS011;7678;50.058;8.306;2024-01-11T11:16:33;44.40;;;29.63;;
15155;SDS011;7678;50.058;8.306;2024-01-11T11:19:01;51.47;;;30.97;;
15155;SDS011;7678;50.058;8.306;2024-01-11T11:21:31;44.00;;;28.30;;
15155;SDS011;7678;50.058;8.306;2024-01-11T11:23:59;42.40;;;27.23;;
15155;SDS011;7678;50.058;8.306;2024-01-11T11:26:28;40.50;;;27.77;;
15155;SDS011;7678;50.058;8.306;2024-01-11T11:29:00;49.23;;;31.43;;
15155;SDS011;7678;50.058;8.306;2024-01-11T11:31:34;46.13;;;29.57;;
15155;SDS011;7678;50.058;8.306;2024-01-11T11:34:03;48.47;;;28.27;;
15155;SDS011;7678;50.058;8.306;2024-01-11T11:36:34;45.87;;;27.17;;
15155;SDS011;7678;50.058;8.306;2024-01-11T11:39:02;46.53;;;28.37;;
15155;SDS011;7678;50.058;8.306;2024-01-11T11:41:31;48.30;;;28.67;;
15155;SDS011;7678;50.058;8.306;2024-01-11T11:44:02;49.57;;;28.97;;
15155;SDS011;7678;50.058;8.306;2024-01-11T11:46:32;48.77;;;29.33;;
15155;SDS011;7678;50.058;8.306;2024-01-11T11:49:01;43.83;;;29.33;;
15155;SDS011;7678;50.058;8.306;2024-01-11T11:51:30;44.63;;;28.10;;
15155;SDS011;7678;50.058;8.306;2024-01-11T11:54:02;42.93;;;27.20;;
15155;SDS011;7678;50.058;8.306;2024-01-11T11:56:31;49.77;;;29.33;;
15155;SDS011;7678;50.058;8.306;2024-01-11T11:59:01;42.67;;;27.00;;
15155;SDS011;7678;50.058;8.306;2024-01-11T12:01:31;44.30;;;27.27;;
15155;SDS011;7678;50.058;8.306;2024-01-11T12:04:02;44.50;;;26.83;;
15155;SDS011;7678;50.058;8.306;2024-01-11T12:06:31;44.07;;;25.37;;
15155;SDS011;7678;50.058;8.306;2024-01-11T12:09:01;45.80;;;27.40;;
15155;SDS011;7678;50.058;8.306;2024-01-11T12:11:30;47.17;;;27.03;;
15155;SDS011;7678;50.058;8.306;2024-01-11T12:13:59;41.43;;;25.73;;
15155;SDS011;7678;50.058;8.306;2024-01-11T12:16:29;45.57;;;27.57;;
15155;SDS011;7678;50.058;8.306;2024-01-11T12:19:01;44.83;;;28.17;;
15155;SDS011;7678;50.058;8.306;2024-01-11T12:21:33;48.70;;;26.97;;
15155;SDS011;7678;50.058;8.306;2024-01-11T12:24:06;45.63;;;27.80;;
15155;SDS011;7678;50.058;8.306;2024-01-11T12:26:36;48.77;;;27.23;;
15155;SDS011;7678;50.058;8.306;2024-01-11T12:29:06;48.73;;;27.37;;
15155;SDS011;7678;50.058;8.306;2024-01-11T12:31:37;46.47;;;27.90;;
15155;SDS011;7678;50.058;8.306;2024-01-11T12:34:08;45.03;;;28.37;;
15155;SDS011;7678;50.058;8.306;2024-01-11T12:36:39;44.63;;;28.23;;
15155;SDS011;7678;50.058;8.306;2024-01-11T12:39:12;42.93;;;26.73;;
15155;SDS011;7678;50.058;8.306;2024-01-11T12:41:42;44.57;;;27.50;;
15155;SDS011;7678;50.058;8.306;2024-01-11T12:44:11;42.60;;;26.77;;
15155;SDS011;7678;50.058;8.306;2024-01-11T12:46:41;44.47;;;26.90;;
15155;SDS011;7678;50.058;8.306;2024-01-11T12:49:11;43.80;;;26.60;;
15155;SDS011;7678;50.058;8.306;2024-01-11T12:51:41;42.87;;;26.73;;
15155;SDS011;7678;50.058;8.306;2024-01-11T12:54:14;42.17;;;26.57;;
15155;SDS011;7678;50.058;8.306;2024-01-11T12:56:46;45.80;;;27.90;;
15155;SDS011;7678;50.058;8.306;2024-01-11T12:59:20;46.40;;;27.70;;
15155;SDS011;7678;50.058;8.306;2024-01-11T13:01:54;42.37;;;26.80;;
15155;SDS011;7678;50.058;8.306;2024-01-11T13:04:26;46.30;;;28.67;;
15155;SDS011;7678;50.058;8.306;2024-01-11T13:06:59;44.77;;;27.93;;
15155;SDS011;7678;50.058;8.306;2024-01-11T13:09:31;42.83;;;26.97;;
15155;SDS011;7678;50.058;8.306;2024-01-11T13:12:00;43.80;;;26.80;;
15155;SDS011;7678;50.058;8.306;2024-01-11T13:14:30;42.90;;;26.83;;
15155;SDS011;7678;50.058;8.306;2024-01-11T13:16:59;41.77;;;25.10;;
15155;SDS011;7678;50.058;8.306;2024-01-11T13:19:28;41.53;;;26.43;;
15155;SDS011;7678;50.058;8.306;2024-01-11T13:21:58;43.83;;;26.90;;
15155;SDS011;7678;50.058;8.306;2024-01-11T13:24:32;45.60;;;27.53;;
15155;SDS011;7678;50.058;8.306;2024-01-11T13:27:02;47.70;;;26.83;;
15155;SDS011;7678;50.058;8.306;2024-01-11T13:29:34;45.77;;;25.80;;
15155;SDS011;7678;50.058;8.306;2024-01-11T13:32:05;45.57;;;27.67;;
15155;SDS011;7678;50.058;8.306;2024-01-11T13:34:38;48.90;;;27.33;;
15155;SDS011;7678;50.058;8.306;2024-01-11T13:37:10;44.37;;;26.77;;
15155;SDS011;7678;50.058;8.306;2024-01-11T13:39:42;44.63;;;26.90;;
15155;SDS011;7678;50.058;8.306;2024-01-11T13:42:13;43.73;;;27.93;;
15155;SDS011;7678;50.058;8.306;2024-01-11T13:44:44;41.27;;;25.60;;
15155;SDS011;7678;50.058;8.306;2024-01-11T13:47:17;44.20;;;26.00;;
15155;SDS011;7678;50.058;8.306;2024-01-11T13:49:48;48.17;;;27.30;;
15155;SDS011;7678;50.058;8.306;2024-01-11T13:52:18;45.40;;;26.63;;
15155;SDS011;7678;50.058;8.306;2024-01-11T13:54:51;44.17;;;27.03;;
15155;SDS011;7678;50.058;8.306;2024-01-11T13:57:21;43.07;;;26.57;;
15155;SDS011;7678;50.058;8.306;2024-01-11T13:59:51;46.43;;;27.63;;
15155;SDS011;7678;50.058;8.306;2024-01-11T14:02:22;44.47;;;26.30;;
15155;SDS011;7678;50.058;8.306;2024-01-11T14:04:51;43.63;;;26.90;;
15155;SDS011;7678;50.058;8.306;2024-01-11T14:07:20;41.17;;;27.57;;
15155;SDS011;7678;50.058;8.306;2024-01-11T14:09:52;44.80;;;28.20;;
15155;SDS011;7678;50.058;8.306;2024-01-11T14:12:21;43.53;;;26.97;;
15155;SDS011;7678;50.058;8.306;2024-01-11T14:14:50;49.73;;;28.30;;
15155;SDS011;7678;50.058;8.306;2024-01-11T14:17:18;44.40;;;28.00;;
15155;SDS011;7678;50.058;8.306;2024-01-11T14:19:47;54.87;;;28.57;;
15155;SDS011;7678;50.058;8.306;2024-01-11T14:22:15;45.23;;;28.10;;
15155;SDS011;7678;50.058;8.306;2024-01-11T14:24:44;47.63;;;27.23;;
15155;SDS011;7678;50.058;8.306;2024-01-11T14:27:15;44.50;;;27.13;;
15155;SDS011;7678;50.058;8.306;2024-01-11T14:29:43;43.80;;;27.43;;
15155;SDS011;7678;50.058;8.306;2024-01-11T14:32:11;46.70;;;28.10;;
15155;SDS011;7678;50.058;8.306;2024-01-11T14:34:58;47.13;;;27.17;;
15155;SDS011;7678;50.058;8.306;2024-01-11T14:37:31;45.37;;;28.30;;
15155;SDS011;7678;50.058;8.306;2024-01-11T14:40:00;45.90;;;29.13;;
15155;SDS011;7678;50.058;8.306;2024-01-11T14:42:30;49.63;;;27.63;;
15155;SDS011;7678;50.058;8.306;2024-01-11T14:44:59;45.63;;;29.00;;
15155;SDS011;7678;50.058;8.306;2024-01-11T14:47:29;46.67;;;28.90;;
15155;SDS011;7678;50.058;8.306;2024-01-11T14:49:58;42.40;;;26.60;;
15155;SDS011;7678;50.058;8.306;2024-01-11T14:52:27;45.10;;;27.63;;
15155;SDS011;7678;50.058;8.306;2024-01-11T14:54:57;46.10;;;27.60;;
15155;SDS011;7678;50.058;8.306;2024-01-11T14:57:25;42.00;;;27.90;;
15155;SDS011;7678;50.058;8.306;2024-01-11T14:59:55;43.00;;;26.90;;